Neola, Iowa
Current Conditions -  °F | °C
As of 9:15 AM on Saturday 20 Dec 2014 (Local Time) from KCBF Reporting Station
Haze Haze  
Wind Chill: 25°   Ceiling: 300
Heat Index: 32°   Visibility: 1mi
Dew Point: 32°   Wind: 8mph
Humidity: 100%   Direction: 160°SSE
Pressure: 30.11"   Gusts: NA
Location:  41.45°N, 95.62°W
Report Text: KCBF 201515Z AUTO 16007KT 1SM BR OVC003 M00/M00 A3011 RMK AO2
Loading
Personal Weather Stations






























Interactive Weather Map New forecast layout! Learn more

10-Day Weather Forecast

Advertisements
Track Severe Weather on mobile